X  Schließen METAR Luftfahrt Wetterdaten     EDTY Adolf Würth Airport
Temperatur
10°C Temperatur
1°C Taupunkt
54% Feuchtigkeit



Wind
14 km/h
9 MPS
4 m/s
8 kts



250°
WSW
Aktuelle Wetterlage

Klar Klar
Luftdruck 1016.93 (hPa) - 30.03 (inHg)
Sichtweite 6 (Meile) - 9.7 (km)
Flughafen
Flughafen Code EDTY

Position : Adolf Würth Airport
Entfernung: 21 (km)

Metar:
EDTY 211350Z 25008KT CAVOK 10/01 Q1017

Zeit: 21-02-2024 13:50 CET